Time;durP1;ratioP1;P1;durP2;ratioP2;P2;SDS_P1;SDS_P2;PMS_P1;PMS_P2;Temp;Humidity;BMP_temperature;BMP_pressure;BME280_temperature;BME280_humidity;BME280_pressure;Samples;Min_cycle;Max_cycle;Signal;HPM_P1;HPM_P2
2022/08/12 00:43:25;;;;;;;18.63;11.40;;;;;;;;;;761603;183;632969;-58
2022/08/12 00:48:22;;;;;;;14.40;10.80;;;;;;;;;;772806;179;633289;-59
2022/08/12 00:50:48;;;;;;;18.73;12.83;;;;;;;;;;766333;180;626843;-66
2022/08/12 00:53:14;;;;;;;19.40;11.87;;;;;;;;;;764890;183;624712;-59
2022/08/12 00:55:40;;;;;;;15.53;11.00;;;;;;;;;;762448;183;627418;-65
2022/08/12 00:58:06;;;;;;;16.90;12.10;;;;;;;;;;758865;183;620089;-65
2022/08/12 01:00:31;;;;;;;17.77;12.53;;;;;;;;;;756587;184;625271;-59
2022/08/12 01:02:57;;;;;;;20.67;13.70;;;;;;;;;;761057;183;627068;-65
2022/08/12 01:12:58;;;;;;;15.13;11.77;;;;;;;;;;771541;180;616694;-63
2022/08/12 01:15:26;;;;;;;22.10;13.80;;;;;;;;;;760428;184;628063;-63
2022/08/12 01:17:50;;;;;;;18.00;12.37;;;;;;;;;;757197;185;629091;-65
2022/08/12 01:20:17;;;;;;;22.93;13.17;;;;;;;;;;759027;183;623275;-58
2022/08/12 01:22:45;;;;;;;18.70;13.63;;;;;;;;;;754552;185;628865;-64
2022/08/12 01:25:11;;;;;;;24.83;13.17;;;;;;;;;;752828;185;630193;-64
2022/08/12 01:27:38;;;;;;;20.10;13.50;;;;;;;;;;757309;183;618238;-58
2022/08/12 01:30:03;;;;;;;21.87;14.50;;;;;;;;;;757506;184;636802;-65
2022/08/12 01:32:29;;;;;;;21.03;13.10;;;;;;;;;;761308;183;632396;-58
2022/08/12 01:34:57;;;;;;;20.77;16.03;;;;;;;;;;754655;186;626156;-64
2022/08/12 01:37:23;;;;;;;19.67;13.80;;;;;;;;;;761607;183;638950;-58
2022/08/12 01:39:51;;;;;;;27.07;15.93;;;;;;;;;;758808;183;616041;-65
2022/08/12 01:42:15;;;;;;;18.33;13.97;;;;;;;;;;758387;183;636140;-58
2022/08/12 01:44:41;;;;;;;19.40;14.00;;;;;;;;;;758840;183;616005;-64
2022/08/12 01:47:10;;;;;;;20.83;14.30;;;;;;;;;;763002;182;617119;-65
2022/08/12 01:49:41;;;;;;;20.50;13.83;;;;;;;;;;758644;183;627018;-63
2022/08/12 01:52:07;;;;;;;19.73;14.00;;;;;;;;;;760254;183;615891;-58
2022/08/12 01:54:37;;;;;;;20.10;14.80;;;;;;;;;;772094;178;624933;-64
2022/08/12 01:57:23;;;;;;;18.70;14.03;;;;;;;;;;763382;184;625971;-64
2022/08/12 01:59:49;;;;;;;18.70;14.63;;;;;;;;;;766025;182;620591;-58
2022/08/12 02:02:17;;;;;;;19.60;14.90;;;;;;;;;;766481;183;626340;-63
2022/08/12 02:12:41;;;;;;;19.73;14.37;;;;;;;;;;767024;182;613059;-64
2022/08/12 02:15:21;;;;;;;21.90;16.83;;;;;;;;;;771506;180;616274;-57
2022/08/12 02:17:43;;;;;;;26.40;16.13;;;;;;;;;;763074;183;654397;-64
2022/08/12 02:20:23;;;;;;;23.80;16.57;;;;;;;;;;771608;176;624046;-64
2022/08/12 02:22:49;;;;;;;17.43;14.77;;;;;;;;;;750891;185;637756;-63
2022/08/12 02:25:20;;;;;;;19.60;16.17;;;;;;;;;;761230;183;628939;-63
2022/08/12 02:27:46;;;;;;;22.37;14.87;;;;;;;;;;754635;181;624846;-64
2022/08/12 02:30:12;;;;;;;20.40;16.40;;;;;;;;;;758495;185;637508;-64
2022/08/12 02:32:38;;;;;;;19.93;16.53;;;;;;;;;;757573;183;631506;-63
2022/08/12 02:35:04;;;;;;;21.40;15.33;;;;;;;;;;763660;183;631626;-59
2022/08/12 02:37:30;;;;;;;23.40;16.80;;;;;;;;;;755260;183;638326;-57
2022/08/12 02:39:56;;;;;;;22.53;15.57;;;;;;;;;;753545;184;627812;-58
2022/08/12 02:42:22;;;;;;;20.00;15.40;;;;;;;;;;759250;183;619955;-64
2022/08/12 02:44:48;;;;;;;24.70;17.73;;;;;;;;;;744898;189;622561;-59
2022/08/12 02:47:14;;;;;;;22.63;15.60;;;;;;;;;;757814;184;629932;-63
2022/08/12 02:49:39;;;;;;;22.03;15.23;;;;;;;;;;755821;183;639806;-58
2022/08/12 02:52:06;;;;;;;20.20;16.67;;;;;;;;;;757058;183;627836;-64
2022/08/12 02:54:31;;;;;;;20.77;16.23;;;;;;;;;;754197;183;647224;-58
2022/08/12 02:56:57;;;;;;;20.73;16.97;;;;;;;;;;757295;183;616931;-58
2022/08/12 02:59:23;;;;;;;25.97;18.10;;;;;;;;;;758344;183;622534;-57
2022/08/12 03:01:48;;;;;;;28.33;17.40;;;;;;;;;;757230;183;629753;-65
2022/08/12 03:04:32;;;;;;;24.73;17.20;;;;;;;;;;761010;183;620024;-64
2022/08/12 03:07:15;;;;;;;24.23;17.70;;;;;;;;;;753455;184;624149;-65
2022/08/12 03:09:39;;;;;;;24.17;18.43;;;;;;;;;;754825;185;624859;-63
2022/08/12 03:12:06;;;;;;;28.97;17.87;;;;;;;;;;762567;183;616963;-58
2022/08/12 03:14:31;;;;;;;28.73;19.73;;;;;;;;;;758933;185;623636;-58
2022/08/12 03:16:57;;;;;;;26.80;19.00;;;;;;;;;;759697;183;628126;-62
2022/08/12 03:19:23;;;;;;;26.40;19.93;;;;;;;;;;757662;183;625270;-62
2022/08/12 03:21:50;;;;;;;29.30;19.47;;;;;;;;;;760161;183;628059;-58
2022/08/12 03:24:17;;;;;;;35.17;19.87;;;;;;;;;;754875;183;627911;-64
2022/08/12 03:26:42;;;;;;;33.27;19.43;;;;;;;;;;755664;183;640263;-58
2022/08/12 03:29:08;;;;;;;30.63;20.27;;;;;;;;;;760377;183;640558;-59
2022/08/12 03:31:33;;;;;;;34.77;25.07;;;;;;;;;;756573;183;623965;-64
2022/08/12 03:34:00;;;;;;;33.37;23.10;;;;;;;;;;756834;183;633790;-58
2022/08/12 03:36:26;;;;;;;37.47;22.77;;;;;;;;;;761678;183;629454;-65
2022/08/12 03:41:36;;;;;;;36.87;25.43;;;;;;;;;;746313;187;632952;-58
2022/08/12 04:01:56;;;;;;;57.47;31.77;;;;;;;;;;755133;183;638119;-65
2022/08/12 04:04:11;;;;;;;56.50;33.40;;;;;;;;;;753844;184;624676;-65
2022/08/12 04:06:37;;;;;;;56.80;34.90;;;;;;;;;;755997;183;619789;-64
2022/08/12 04:09:03;;;;;;;67.90;35.63;;;;;;;;;;757932;183;629438;-64
2022/08/12 04:14:07;;;;;;;63.30;36.80;;;;;;;;;;755222;183;629293;-58
2022/08/12 04:16:33;;;;;;;59.27;35.90;;;;;;;;;;758570;183;628024;-63
2022/08/12 04:18:59;;;;;;;62.73;35.10;;;;;;;;;;759509;183;627724;-59
2022/08/12 04:21:25;;;;;;;58.53;34.30;;;;;;;;;;768376;179;623380;-57
2022/08/12 04:23:52;;;;;;;65.50;37.40;;;;;;;;;;773662;176;618863;-62
2022/08/12 04:26:17;;;;;;;66.53;37.90;;;;;;;;;;765276;183;622716;-60
2022/08/12 04:28:44;;;;;;;59.33;35.63;;;;;;;;;;757902;185;617626;-59
2022/08/12 04:31:09;;;;;;;54.13;33.87;;;;;;;;;;754459;182;634808;-64
2022/08/12 04:33:34;;;;;;;54.23;32.17;;;;;;;;;;761772;180;632782;-64
2022/08/12 04:36:00;;;;;;;52.53;33.50;;;;;;;;;;753920;185;626328;-63
2022/08/12 04:38:27;;;;;;;60.37;35.43;;;;;;;;;;758666;184;638295;-59
2022/08/12 04:40:52;;;;;;;59.97;34.13;;;;;;;;;;753522;184;625087;-64
2022/08/12 04:43:18;;;;;;;50.43;30.83;;;;;;;;;;753128;186;629062;-58
2022/08/12 04:45:45;;;;;;;49.10;31.57;;;;;;;;;;758773;185;630238;-59
2022/08/12 04:48:09;;;;;;;51.13;30.73;;;;;;;;;;753537;185;627028;-59
2022/08/12 04:50:35;;;;;;;53.90;31.93;;;;;;;;;;756150;183;614901;-58
2022/08/12 04:53:01;;;;;;;45.60;29.73;;;;;;;;;;759137;184;637385;-59
2022/08/12 04:55:27;;;;;;;42.10;27.97;;;;;;;;;;751856;187;635462;-64
2022/08/12 04:57:53;;;;;;;40.57;28.80;;;;;;;;;;757692;183;635059;-64
2022/08/12 05:00:19;;;;;;;45.23;27.90;;;;;;;;;;753650;183;626608;-64
2022/08/12 05:02:45;;;;;;;38.47;26.20;;;;;;;;;;758018;184;709939;-63
2022/08/12 05:05:10;;;;;;;45.40;26.50;;;;;;;;;;754127;185;619472;-64
2022/08/12 05:07:36;;;;;;;40.77;25.90;;;;;;;;;;757640;183;632746;-63
2022/08/12 05:10:02;;;;;;;49.70;26.47;;;;;;;;;;765294;183;629221;-65
2022/08/12 05:12:29;;;;;;;42.13;24.70;;;;;;;;;;756928;183;630174;-64
2022/08/12 05:14:55;;;;;;;48.07;26.50;;;;;;;;;;755808;185;670838;-58
2022/08/12 05:17:21;;;;;;;41.63;23.73;;;;;;;;;;757762;183;637751;-60
2022/08/12 05:19:46;;;;;;;45.80;26.00;;;;;;;;;;760516;183;632766;-65
2022/08/12 05:22:12;;;;;;;39.83;24.33;;;;;;;;;;755972;183;695217;-63
2022/08/12 05:24:38;;;;;;;50.20;24.87;;;;;;;;;;755488;183;630911;-63
2022/08/12 05:27:04;;;;;;;48.10;28.53;;;;;;;;;;753143;185;615556;-62
2022/08/12 05:29:30;;;;;;;43.87;24.50;;;;;;;;;;763113;183;634531;-58
2022/08/12 05:31:56;;;;;;;39.07;22.73;;;;;;;;;;752271;184;635136;-58
2022/08/12 05:34:22;;;;;;;48.60;27.67;;;;;;;;;;766297;183;633419;-63
2022/08/12 05:36:47;;;;;;;46.47;26.50;;;;;;;;;;760903;183;624967;-58
2022/08/12 05:39:13;;;;;;;45.47;26.53;;;;;;;;;;757736;183;620796;-58
2022/08/12 05:41:40;;;;;;;49.50;27.77;;;;;;;;;;759731;184;622905;-57
2022/08/12 05:44:05;;;;;;;46.60;26.23;;;;;;;;;;754205;183;635529;-62
2022/08/12 05:46:31;;;;;;;50.87;28.33;;;;;;;;;;756109;183;633999;-59
2022/08/12 05:48:59;;;;;;;50.93;28.33;;;;;;;;;;756702;183;635871;-59
2022/08/12 05:51:23;;;;;;;47.33;26.93;;;;;;;;;;751526;185;624289;-59
2022/08/12 05:53:50;;;;;;;50.50;28.00;;;;;;;;;;751465;184;631263;-59
2022/08/12 05:56:18;;;;;;;53.30;30.60;;;;;;;;;;756317;183;631458;-59
2022/08/12 05:58:44;;;;;;;45.53;26.93;;;;;;;;;;761017;183;622370;-61
2022/08/12 06:01:10;;;;;;;40.97;27.07;;;;;;;;;;755753;183;628517;-63
2022/08/12 06:03:36;;;;;;;44.13;26.87;;;;;;;;;;755611;184;629019;-59
2022/08/12 06:06:03;;;;;;;37.20;25.00;;;;;;;;;;757631;183;637070;-59
2022/08/12 06:08:27;;;;;;;33.60;20.07;;;;;;;;;;754942;183;632014;-59
2022/08/12 06:10:55;;;;;;;33.83;22.83;;;;;;;;;;754525;183;626495;-63
2022/08/12 06:13:19;;;;;;;38.17;22.03;;;;;;;;;;757654;183;615327;-59
2022/08/12 06:15:45;;;;;;;30.67;20.70;;;;;;;;;;758957;183;625645;-64
2022/08/12 06:18:11;;;;;;;33.70;20.50;;;;;;;;;;753930;185;653614;-64
2022/08/12 06:20:37;;;;;;;28.77;19.70;;;;;;;;;;754349;184;616276;-59
2022/08/12 06:23:02;;;;;;;27.20;19.23;;;;;;;;;;759789;185;622984;-64
2022/08/12 06:25:28;;;;;;;38.80;19.73;;;;;;;;;;757431;184;631741;-63
2022/08/12 06:27:54;;;;;;;31.13;18.60;;;;;;;;;;756195;183;623032;-63
2022/08/12 06:30:20;;;;;;;30.83;18.90;;;;;;;;;;759154;183;630459;-59
2022/08/12 06:32:47;;;;;;;26.93;18.00;;;;;;;;;;757031;183;627383;-58
2022/08/12 06:35:13;;;;;;;22.97;16.50;;;;;;;;;;758445;183;617052;-63
2022/08/12 06:37:40;;;;;;;23.80;16.70;;;;;;;;;;756096;183;617145;-60
2022/08/12 06:40:06;;;;;;;24.87;16.37;;;;;;;;;;753937;184;616504;-58
2022/08/12 06:45:04;;;;;;;26.03;18.07;;;;;;;;;;740841;186;621054;-63
2022/08/12 06:47:31;;;;;;;27.10;16.70;;;;;;;;;;762819;181;625257;-58
2022/08/12 06:49:56;;;;;;;26.37;14.93;;;;;;;;;;756511;184;618273;-63
2022/08/12 06:52:23;;;;;;;24.40;16.97;;;;;;;;;;755635;183;617241;-58
2022/08/12 06:54:48;;;;;;;23.37;16.10;;;;;;;;;;757902;183;633844;-63
2022/08/12 06:57:15;;;;;;;23.40;14.90;;;;;;;;;;761188;185;622934;-61
2022/08/12 06:59:40;;;;;;;22.07;15.10;;;;;;;;;;757719;183;629212;-63
2022/08/12 07:02:07;;;;;;;23.97;15.80;;;;;;;;;;762321;183;629815;-59
2022/08/12 07:04:34;;;;;;;23.00;14.63;;;;;;;;;;763091;183;630923;-59
2022/08/12 07:06:57;;;;;;;21.97;15.27;;;;;;;;;;755726;183;632541;-64
2022/08/12 07:09:23;;;;;;;22.10;14.30;;;;;;;;;;753269;184;628245;-58
2022/08/12 07:11:49;;;;;;;20.77;14.63;;;;;;;;;;762304;183;637995;-64
2022/08/12 07:14:15;;;;;;;19.00;12.53;;;;;;;;;;762688;183;633204;-63
2022/08/12 07:19:12;;;;;;;17.30;11.97;;;;;;;;;;759312;183;636851;-59
2022/08/12 07:21:38;;;;;;;18.83;13.40;;;;;;;;;;758860;183;629325;-58
2022/08/12 07:24:04;;;;;;;23.33;14.70;;;;;;;;;;757677;183;634958;-58
2022/08/12 07:26:30;;;;;;;17.97;12.53;;;;;;;;;;755614;183;642380;-63
2022/08/12 07:28:56;;;;;;;20.10;13.87;;;;;;;;;;761588;183;626659;-59
2022/08/12 07:31:21;;;;;;;20.70;13.03;;;;;;;;;;757461;183;625155;-62
2022/08/12 07:33:48;;;;;;;23.07;13.80;;;;;;;;;;756406;183;626168;-63
2022/08/12 07:36:13;;;;;;;20.43;14.77;;;;;;;;;;755323;183;639123;-61
2022/08/12 07:38:42;;;;;;;19.10;14.50;;;;;;;;;;750714;185;630810;-61
2022/08/12 07:41:06;;;;;;;20.90;14.37;;;;;;;;;;750891;184;630676;-62
2022/08/12 07:43:32;;;;;;;17.00;13.90;;;;;;;;;;755811;183;639566;-58
2022/08/12 07:45:58;;;;;;;18.20;13.10;;;;;;;;;;763898;183;622145;-58
2022/08/12 07:48:24;;;;;;;20.43;13.43;;;;;;;;;;769315;176;646794;-59
2022/08/12 07:50:49;;;;;;;18.07;13.30;;;;;;;;;;762557;183;628435;-58
2022/08/12 07:53:15;;;;;;;18.40;12.63;;;;;;;;;;757109;183;628014;-64
2022/08/12 07:55:41;;;;;;;21.17;12.57;;;;;;;;;;753540;182;623645;-58
2022/08/12 07:58:07;;;;;;;13.40;11.30;;;;;;;;;;756641;183;624502;-58
2022/08/12 08:00:33;;;;;;;19.00;12.97;;;;;;;;;;763077;183;618657;-61
2022/08/12 08:02:59;;;;;;;16.37;12.20;;;;;;;;;;766151;180;628798;-58
2022/08/12 08:05:24;;;;;;;18.30;12.87;;;;;;;;;;757713;183;624682;-62
2022/08/12 08:07:52;;;;;;;19.00;12.33;;;;;;;;;;757497;183;623327;-62
2022/08/12 08:10:16;;;;;;;12.60;10.10;;;;;;;;;;758966;184;614336;-58
2022/08/12 08:15:14;;;;;;;16.40;10.10;;;;;;;;;;755261;183;617039;-58
2022/08/12 08:17:39;;;;;;;14.30;10.53;;;;;;;;;;761260;183;626719;-63
2022/08/12 08:20:06;;;;;;;16.40;10.63;;;;;;;;;;757050;184;626001;-61
2022/08/12 08:22:33;;;;;;;16.07;10.87;;;;;;;;;;757391;183;632365;-58
2022/08/12 08:24:58;;;;;;;13.00;10.10;;;;;;;;;;756063;183;628049;-59
2022/08/12 08:27:23;;;;;;;13.90;9.80;;;;;;;;;;760306;183;630713;-62
2022/08/12 08:29:49;;;;;;;15.50;11.20;;;;;;;;;;756857;185;630343;-58
2022/08/12 08:32:15;;;;;;;11.80;9.13;;;;;;;;;;754912;184;627431;-59
2022/08/12 08:34:44;;;;;;;11.37;9.60;;;;;;;;;;758938;184;628708;-59
2022/08/12 08:37:06;;;;;;;13.20;10.80;;;;;;;;;;754083;185;635376;-59
2022/08/12 08:39:32;;;;;;;17.57;9.20;;;;;;;;;;754408;184;631935;-62
2022/08/12 08:44:30;;;;;;;15.07;10.50;;;;;;;;;;756459;187;609089;-64
2022/08/12 08:46:56;;;;;;;9.20;7.33;;;;;;;;;;753226;183;623288;-58
2022/08/12 08:49:22;;;;;;;13.43;8.07;;;;;;;;;;756766;183;615140;-64
2022/08/12 08:51:48;;;;;;;11.37;7.93;;;;;;;;;;759078;183;633495;-59
2022/08/12 08:54:14;;;;;;;12.43;7.80;;;;;;;;;;768287;180;617207;-61
2022/08/12 08:56:42;;;;;;;12.23;7.83;;;;;;;;;;755688;184;621013;-58
2022/08/12 08:59:07;;;;;;;9.07;7.62;;;;;;;;;;756802;183;626240;-60
2022/08/12 09:01:34;;;;;;;10.20;8.40;;;;;;;;;;760819;183;627976;-59
2022/08/12 09:04:00;;;;;;;11.93;8.10;;;;;;;;;;760659;183;632172;-60
2022/08/12 09:06:25;;;;;;;9.53;7.73;;;;;;;;;;754502;185;617958;-63
2022/08/12 09:08:51;;;;;;;9.77;7.03;;;;;;;;;;763098;183;628826;-63
2022/08/12 09:13:49;;;;;;;12.93;7.00;;;;;;;;;;755056;185;626931;-59
2022/08/12 09:16:16;;;;;;;14.38;7.60;;;;;;;;;;758898;183;633791;-60
2022/08/12 09:18:42;;;;;;;11.40;6.70;;;;;;;;;;770048;181;620044;-65
2022/08/12 09:21:08;;;;;;;10.70;7.07;;;;;;;;;;759915;183;616939;-58
2022/08/12 09:23:33;;;;;;;13.63;7.00;;;;;;;;;;756883;183;618893;-62
2022/08/12 09:26:01;;;;;;;9.30;7.20;;;;;;;;;;760830;183;618877;-64
2022/08/12 09:28:24;;;;;;;10.37;6.83;;;;;;;;;;758412;185;617249;-66
2022/08/12 09:30:52;;;;;;;11.33;6.97;;;;;;;;;;757370;183;616691;-65
2022/08/12 09:33:16;;;;;;;9.20;6.90;;;;;;;;;;760178;183;624954;-59
2022/08/12 09:35:43;;;;;;;9.23;7.67;;;;;;;;;;755712;183;635102;-63
2022/08/12 09:38:10;;;;;;;11.03;7.60;;;;;;;;;;764539;183;627729;-58
2022/08/12 09:40:35;;;;;;;11.10;7.50;;;;;;;;;;760817;183;617154;-59
2022/08/12 09:45:32;;;;;;;7.10;6.30;;;;;;;;;;753502;184;628105;-63
2022/08/12 09:48:00;;;;;;;21.93;7.30;;;;;;;;;;753672;184;629983;-59
2022/08/12 09:50:24;;;;;;;9.20;7.60;;;;;;;;;;760130;185;626124;-60
2022/08/12 09:52:56;;;;;;;13.20;7.40;;;;;;;;;;756358;183;631176;-67
2022/08/12 09:55:22;;;;;;;12.93;7.77;;;;;;;;;;757698;183;633147;-59
2022/08/12 09:57:48;;;;;;;10.80;7.00;;;;;;;;;;755309;184;629660;-59
2022/08/12 10:00:15;;;;;;;16.33;8.83;;;;;;;;;;758657;183;625138;-61
2022/08/12 10:02:39;;;;;;;10.20;7.60;;;;;;;;;;755135;183;628726;-59
2022/08/12 10:05:08;;;;;;;11.33;7.67;;;;;;;;;;753871;183;627570;-62
2022/08/12 10:07:31;;;;;;;8.90;7.43;;;;;;;;;;757838;183;619152;-63
2022/08/12 10:09:57;;;;;;;10.20;8.27;;;;;;;;;;759320;183;617683;-59
2022/08/12 10:14:54;;;;;;;11.93;8.07;;;;;;;;;;761325;183;617161;-61
2022/08/12 10:17:21;;;;;;;11.60;6.80;;;;;;;;;;756290;183;631628;-60
2022/08/12 10:19:46;;;;;;;14.23;7.10;;;;;;;;;;769659;179;617734;-60
2022/08/12 10:22:14;;;;;;;11.13;7.60;;;;;;;;;;754875;185;636992;-61
2022/08/12 10:24:38;;;;;;;18.93;8.27;;;;;;;;;;757381;184;623480;-60
2022/08/12 10:29:37;;;;;;;11.20;7.17;;;;;;;;;;755584;183;618802;-61
2022/08/12 10:32:02;;;;;;;10.83;6.80;;;;;;;;;;756340;183;630667;-59
2022/08/12 10:34:27;;;;;;;10.23;7.43;;;;;;;;;;761948;183;624713;-58
2022/08/12 10:36:57;;;;;;;8.87;6.57;;;;;;;;;;759838;183;628227;-61
2022/08/12 10:39:20;;;;;;;10.23;6.07;;;;;;;;;;755827;183;621772;-60
2022/08/12 10:44:17;;;;;;;13.73;7.30;;;;;;;;;;755651;183;634946;-59
2022/08/12 10:46:44;;;;;;;8.97;6.33;;;;;;;;;;754079;185;638372;-58
2022/08/12 10:49:10;;;;;;;9.50;6.33;;;;;;;;;;755187;185;615180;-59
2022/08/12 10:51:35;;;;;;;7.57;6.33;;;;;;;;;;757867;184;615324;-58
2022/08/12 10:54:00;;;;;;;10.33;5.70;;;;;;;;;;755688;183;627882;-58
2022/08/12 10:56:26;;;;;;;12.47;5.97;;;;;;;;;;754353;184;631575;-61
2022/08/12 10:58:54;;;;;;;8.00;5.33;;;;;;;;;;757416;183;631402;-60
2022/08/12 11:01:18;;;;;;;7.60;5.13;;;;;;;;;;756672;183;627037;-59
2022/08/12 11:03:44;;;;;;;8.00;5.50;;;;;;;;;;757369;183;616479;-61
2022/08/12 11:06:10;;;;;;;6.47;5.07;;;;;;;;;;759082;185;628498;-61
2022/08/12 11:08:36;;;;;;;7.33;5.47;;;;;;;;;;753737;183;626554;-59
2022/08/12 11:11:02;;;;;;;7.00;5.20;;;;;;;;;;752570;183;629306;-60
2022/08/12 11:13:27;;;;;;;10.00;7.60;;;;;;;;;;756847;183;651675;-61
2022/08/12 11:15:54;;;;;;;16.50;15.20;;;;;;;;;;768907;179;633056;-59
2022/08/12 11:18:19;;;;;;;7.20;4.97;;;;;;;;;;755215;183;629921;-58
2022/08/12 11:20:46;;;;;;;8.10;4.37;;;;;;;;;;751291;184;625114;-61
2022/08/12 11:23:11;;;;;;;4.93;4.10;;;;;;;;;;765155;183;640501;-58
2022/08/12 11:25:37;;;;;;;5.97;4.70;;;;;;;;;;756243;183;625479;-62
2022/08/12 11:28:03;;;;;;;6.47;4.33;;;;;;;;;;754471;183;626956;-59
2022/08/12 11:30:28;;;;;;;6.80;4.90;;;;;;;;;;759110;181;628153;-59
2022/08/12 11:32:54;;;;;;;9.17;3.93;;;;;;;;;;757023;183;617073;-61
2022/08/12 11:35:20;;;;;;;9.77;3.67;;;;;;;;;;756896;183;629373;-59
2022/08/12 11:37:46;;;;;;;6.20;4.73;;;;;;;;;;761236;183;627557;-61
2022/08/12 11:40:12;;;;;;;5.37;4.37;;;;;;;;;;756546;183;624853;-59
2022/08/12 11:42:38;;;;;;;4.87;4.17;;;;;;;;;;757334;183;620330;-62
2022/08/12 11:45:04;;;;;;;4.67;3.60;;;;;;;;;;752495;186;632005;-59
2022/08/12 11:47:29;;;;;;;8.67;4.80;;;;;;;;;;756694;185;626689;-59
2022/08/12 11:49:55;;;;;;;5.43;4.30;;;;;;;;;;756386;185;620998;-60
2022/08/12 11:52:21;;;;;;;4.60;3.70;;;;;;;;;;756051;184;622139;-59
2022/08/12 11:54:47;;;;;;;5.33;3.97;;;;;;;;;;761173;183;617528;-59
2022/08/12 11:57:13;;;;;;;5.20;3.40;;;;;;;;;;756302;183;628871;-58
2022/08/12 11:59:39;;;;;;;4.93;3.40;;;;;;;;;;754420;183;632768;-61
2022/08/12 12:02:05;;;;;;;6.10;4.77;;;;;;;;;;758145;185;631029;-60
2022/08/12 12:04:30;;;;;;;6.37;4.23;;;;;;;;;;763034;183;629637;-60
2022/08/12 12:06:56;;;;;;;7.83;4.10;;;;;;;;;;761825;183;638984;-59
2022/08/12 12:09:23;;;;;;;8.70;4.67;;;;;;;;;;760262;185;619036;-59
2022/08/12 12:11:48;;;;;;;26.43;6.90;;;;;;;;;;759237;183;637646;-58
2022/08/12 12:14:14;;;;;;;5.37;4.20;;;;;;;;;;755179;185;629414;-61
2022/08/12 12:16:40;;;;;;;5.90;3.93;;;;;;;;;;755078;184;620574;-60
2022/08/12 12:19:05;;;;;;;3.60;3.00;;;;;;;;;;758601;184;616860;-61
2022/08/12 12:21:31;;;;;;;4.97;3.60;;;;;;;;;;753682;183;628852;-58
2022/08/12 12:23:57;;;;;;;10.03;6.27;;;;;;;;;;754349;185;619455;-60
2022/08/12 12:26:23;;;;;;;4.50;4.10;;;;;;;;;;760021;183;626524;-59
2022/08/12 12:28:49;;;;;;;5.97;3.77;;;;;;;;;;755930;184;630988;-61
2022/08/12 12:31:15;;;;;;;5.63;5.00;;;;;;;;;;756210;183;635390;-60
2022/08/12 12:33:40;;;;;;;6.47;4.23;;;;;;;;;;753814;186;627012;-60
2022/08/12 12:36:06;;;;;;;6.03;5.20;;;;;;;;;;758010;183;617089;-59
2022/08/12 12:38:32;;;;;;;7.20;4.57;;;;;;;;;;752994;184;637820;-59
2022/08/12 12:40:58;;;;;;;6.73;4.67;;;;;;;;;;755206;184;629073;-59
2022/08/12 12:43:24;;;;;;;6.10;4.67;;;;;;;;;;761176;181;621276;-58
2022/08/12 12:45:50;;;;;;;6.23;3.83;;;;;;;;;;755344;183;623749;-61
2022/08/12 12:48:16;;;;;;;8.97;3.90;;;;;;;;;;755403;183;632024;-59
2022/08/12 12:50:42;;;;;;;4.57;3.83;;;;;;;;;;759591;184;621411;-59
2022/08/12 12:53:08;;;;;;;5.60;3.60;;;;;;;;;;757976;183;626712;-61
2022/08/12 12:55:34;;;;;;;7.10;3.90;;;;;;;;;;759199;183;631134;-58
2022/08/12 12:58:03;;;;;;;5.90;4.80;;;;;;;;;;756048;184;630612;-60
2022/08/12 13:00:26;;;;;;;7.80;4.70;;;;;;;;;;762551;182;677717;-57
2022/08/12 13:02:54;;;;;;;6.87;4.30;;;;;;;;;;758819;183;618093;-58
2022/08/12 13:05:18;;;;;;;5.13;4.03;;;;;;;;;;754592;183;631545;-60
2022/08/12 13:07:44;;;;;;;7.77;4.20;;;;;;;;;;759536;183;630340;-60
2022/08/12 13:10:10;;;;;;;6.50;4.20;;;;;;;;;;755061;183;636705;-58
2022/08/12 13:12:36;;;;;;;6.37;4.23;;;;;;;;;;754175;183;632306;-59
2022/08/12 13:15:02;;;;;;;5.20;3.40;;;;;;;;;;759234;183;619074;-60
2022/08/12 13:17:30;;;;;;;5.57;3.57;;;;;;;;;;756261;183;616941;-60
2022/08/12 13:19:56;;;;;;;4.90;3.67;;;;;;;;;;755184;183;638234;-58
2022/08/12 13:22:22;;;;;;;4.00;3.43;;;;;;;;;;754172;184;638206;-61
2022/08/12 13:24:49;;;;;;;4.83;3.70;;;;;;;;;;759031;183;642760;-59
2022/08/12 13:27:14;;;;;;;4.80;3.80;;;;;;;;;;753529;183;644780;-60
2022/08/12 13:29:39;;;;;;;7.63;3.67;;;;;;;;;;753672;185;627182;-60
2022/08/12 13:32:05;;;;;;;6.70;3.63;;;;;;;;;;756446;184;634062;-57
2022/08/12 13:34:32;;;;;;;5.67;3.03;;;;;;;;;;751579;184;641237;-59
2022/08/12 13:36:58;;;;;;;4.73;3.90;;;;;;;;;;752184;184;684312;-60
2022/08/12 13:39:24;;;;;;;4.67;3.40;;;;;;;;;;757293;184;610931;-60
2022/08/12 13:41:50;;;;;;;5.40;3.83;;;;;;;;;;756803;183;638767;-59
2022/08/12 13:44:16;;;;;;;5.77;3.77;;;;;;;;;;757980;183;629037;-60
2022/08/12 13:46:42;;;;;;;6.87;3.47;;;;;;;;;;755135;183;619081;-59
2022/08/12 13:49:13;;;;;;;7.47;4.37;;;;;;;;;;760077;183;636314;-58
2022/08/12 13:51:34;;;;;;;6.77;3.53;;;;;;;;;;758325;183;625713;-59
2022/08/12 13:53:59;;;;;;;6.40;3.57;;;;;;;;;;751631;185;632418;-58
2022/08/12 13:56:26;;;;;;;3.83;3.00;;;;;;;;;;759501;183;626337;-58
2022/08/12 13:58:51;;;;;;;5.50;3.60;;;;;;;;;;756419;183;626198;-60
2022/08/12 14:01:19;;;;;;;4.73;3.70;;;;;;;;;;756839;183;619306;-59
2022/08/12 14:03:43;;;;;;;7.50;3.50;;;;;;;;;;760632;183;616867;-60
2022/08/12 14:06:11;;;;;;;4.93;3.90;;;;;;;;;;758536;183;634974;-58
2022/08/12 14:08:34;;;;;;;7.80;4.23;;;;;;;;;;758099;183;625309;-60
2022/08/12 14:11:00;;;;;;;8.90;3.90;;;;;;;;;;756030;183;617146;-60
2022/08/12 14:13:26;;;;;;;4.90;3.40;;;;;;;;;;759458;183;625284;-58
2022/08/12 14:15:52;;;;;;;5.70;4.30;;;;;;;;;;757701;183;633852;-59
2022/08/12 14:18:18;;;;;;;5.53;3.93;;;;;;;;;;754113;183;623713;-58
2022/08/12 14:20:45;;;;;;;9.00;4.10;;;;;;;;;;759737;183;612479;-57
2022/08/12 14:23:10;;;;;;;17.27;4.33;;;;;;;;;;755177;183;632464;-57
2022/08/12 14:25:38;;;;;;;4.63;3.60;;;;;;;;;;753974;185;627385;-60
2022/08/12 14:28:02;;;;;;;5.70;4.10;;;;;;;;;;755180;186;623392;-60
2022/08/12 14:30:28;;;;;;;6.37;3.63;;;;;;;;;;753123;186;627117;-60
2022/08/12 14:32:54;;;;;;;4.60;3.67;;;;;;;;;;752457;185;643548;-57
2022/08/12 14:35:20;;;;;;;8.07;3.83;;;;;;;;;;754497;185;634200;-58
2022/08/12 14:37:48;;;;;;;6.43;3.47;;;;;;;;;;755082;182;624724;-60
2022/08/12 14:40:12;;;;;;;18.33;4.60;;;;;;;;;;758375;183;637391;-57
2022/08/12 14:42:38;;;;;;;6.03;4.37;;;;;;;;;;754787;184;631217;-59
2022/08/12 14:45:06;;;;;;;6.60;3.80;;;;;;;;;;758215;183;625268;-58
2022/08/12 14:47:30;;;;;;;4.80;3.37;;;;;;;;;;763863;183;638346;-59
2022/08/12 14:49:55;;;;;;;6.00;3.70;;;;;;;;;;755076;183;627772;-60
2022/08/12 14:52:23;;;;;;;8.10;4.47;;;;;;;;;;758096;183;639091;-58
2022/08/12 14:54:47;;;;;;;8.97;4.63;;;;;;;;;;754413;183;649376;-59
2022/08/12 14:57:13;;;;;;;5.27;4.27;;;;;;;;;;754444;183;638231;-57
2022/08/12 15:02:13;;;;;;;6.50;3.90;;;;;;;;;;752908;188;624885;-58
2022/08/12 15:04:38;;;;;;;5.23;4.27;;;;;;;;;;760895;183;631164;-58
2022/08/12 15:07:02;;;;;;;7.00;6.30;;;;;;;;;;758278;183;627160;-60
2022/08/12 15:09:30;;;;;;;15.23;5.30;;;;;;;;;;760826;185;616729;-56
2022/08/12 15:11:54;;;;;;;6.40;4.13;;;;;;;;;;754216;183;624119;-58
2022/08/12 15:14:20;;;;;;;6.80;4.20;;;;;;;;;;757498;183;625099;-60
2022/08/12 15:16:47;;;;;;;6.00;4.33;;;;;;;;;;767464;183;618875;-60
2022/08/12 15:19:11;;;;;;;6.23;3.80;;;;;;;;;;755905;183;628047;-58
2022/08/12 15:21:39;;;;;;;6.50;4.87;;;;;;;;;;754216;183;642643;-57
2022/08/12 15:24:07;;;;;;;5.17;4.47;;;;;;;;;;755751;184;630241;-58
2022/08/12 15:26:35;;;;;;;5.53;3.77;;;;;;;;;;758967;185;628402;-60
2022/08/12 15:28:56;;;;;;;3.77;3.30;;;;;;;;;;755879;184;624933;-60
2022/08/12 15:31:23;;;;;;;5.00;4.03;;;;;;;;;;754136;184;619306;-58
2022/08/12 15:33:49;;;;;;;6.00;5.40;;;;;;;;;;758162;184;628740;-57
2022/08/12 15:36:15;;;;;;;7.97;4.00;;;;;;;;;;754597;183;624456;-58
2022/08/12 15:38:40;;;;;;;7.07;4.00;;;;;;;;;;756962;183;625845;-60
2022/08/12 15:41:06;;;;;;;10.23;4.03;;;;;;;;;;759157;185;634516;-61
2022/08/12 15:43:33;;;;;;;9.73;4.27;;;;;;;;;;757198;183;635354;-60
2022/08/12 15:45:59;;;;;;;6.23;3.77;;;;;;;;;;755512;185;617910;-60
2022/08/12 15:48:24;;;;;;;7.40;3.83;;;;;;;;;;753234;185;636171;-57
2022/08/12 15:50:50;;;;;;;5.90;4.30;;;;;;;;;;758424;184;625511;-58
2022/08/12 15:54:03;;;;;;;10.93;4.40;;;;;;;;;;752930;186;619548;-61
2022/08/12 15:55:42;;;;;;;4.70;4.10;;;;;;;;;;753555;183;623231;-58
2022/08/12 15:58:08;;;;;;;5.87;4.80;;;;;;;;;;758460;183;635621;-58